METAR AND TAF INFORMATION
METAR FOR SAEZ
ADDS - METARS form results

(1154 UTC 19 May 2019)
Data provider http://aviationweather.gov/metar/data/
 
METAR text: SAEZ 191130Z VRB02KT 0500 FG R11/0600 OVC003 11/11 Q1018 NOSIG
Conditions at: SAEZ (BUENOS AIRES/EZE, AR) observed 1130 UTC 19 May 2019
Temperature: 11.0°C (52°F)
Dewpoint: 11.0°C (52°F) [RH = 100%]
Pressure (altimeter): 30.06 inches Hg (1018.0 mb)
Winds: variable direction winds at 2 MPH (2 knots; 1.0 m/s)
Visibility: 0.31 miles (0.50 km)
Ceiling: 300 feet AGL
Clouds: overcast cloud deck at 300 feet AGL
Weather: FG  (fog)

METAR text: SAEZ 191116Z 18003KT 0800 R11/0750 FG OVC003 11/11 Q1018 NOSIG
Conditions at: SAEZ (BUENOS AIRES/EZE, AR) observed 1116 UTC 19 May 2019
Temperature: 11.0°C (52°F)
Dewpoint: 11.0°C (52°F) [RH = 100%]
Pressure (altimeter): 30.06 inches Hg (1018.0 mb)
Winds: from the S (180 degrees) at 3 MPH (3 knots; 1.5 m/s)
Visibility: 0.50 miles (0.80 km)
Ceiling: 300 feet AGL
Clouds: overcast cloud deck at 300 feet AGL
Weather: FG  (fog)

METAR text: SAEZ 191106Z 17004KT 1200 R11/1100 MIFG BR OVC003 11/11 Q1018 NOSIG
Conditions at: SAEZ (BUENOS AIRES/EZE, AR) observed 1106 UTC 19 May 2019
Temperature: 11.0°C (52°F)
Dewpoint: 11.0°C (52°F) [RH = 100%]
Pressure (altimeter): 30.06 inches Hg (1018.0 mb)
Winds: from the S (170 degrees) at 5 MPH (4 knots; 2.1 m/s)
Visibility: 0.75 miles (1.21 km)
Ceiling: 300 feet AGL
Clouds: overcast cloud deck at 300 feet AGL
Weather: MIFG BR  (shallow fog, mist)

METAR text: SAEZ 191100Z 18003KT 3000 BR OVC003 11/11 Q1018 NOSIG
Conditions at: SAEZ (BUENOS AIRES/EZE, AR) observed 1100 UTC 19 May 2019
Temperature: 11.0°C (52°F)
Dewpoint: 11.0°C (52°F) [RH = 100%]
Pressure (altimeter): 30.06 inches Hg (1018.0 mb)
Winds: from the S (180 degrees) at 3 MPH (3 knots; 1.5 m/s)
Visibility: 1.86 miles (2.99 km)
Ceiling: 300 feet AGL
Clouds: overcast cloud deck at 300 feet AGL
Weather: BR  (mist)

Forecast for: SAEZ (BUENOS AIRES/EZE, AR)
Text: TAF SAEZ 191100Z 1912/2012 18008KT 8000 BKN004 TX17/1918Z TN09/2010Z
Forecast period: 1200 to 1900 UTC 19 May 2019
Forecast type: FROM: standard forecast or significant change
Winds: from the S (180 degrees) at 9 MPH (8 knots; 4.1 m/s)
Visibility: 5 miles (8 km)
Ceiling: 400 feet AGL
Clouds: broken clouds at 400 feet AGL
Weather: no significant weather forecast for this period
Text: BECMG 1914/19117 9999 SCT006 BKN010
Forecast period: 1900 UTC 19 May 2019 to 1200 UTC 20 May 2019
Forecast type: BECOMING: Conditions expected to become as follows by 2200 UTC 19 May 2019
Winds: from the S (180 degrees) at 9 MPH (8 knots; 4.1 m/s)
Visibility: 6 or more miles 10+ km)
Ceiling: at least 12,000 feet AGL
Clouds: scattered clouds at 4000 feet AGL
Weather: no significant weather forecast for this period
Text: BECMG 1919/1922 9999 SCT040
Forecast period: 0600 to 1200 UTC 20 May 2019
Forecast type: PROBABLE: 30 percent likelihood of the following during this time
Winds: from the SSE (150 degrees) at 6 MPH (5 knots; 2.6 m/s)
Visibility: 3 miles (5 km)
Ceiling: unknown
Clouds: missing
Weather: BR  (mist)

 AIRPORT MAP

 RUNWAY INFORMATION
Runway 11 Runway length 10827 ft Runway width 197 ft
Runway elevation 62 ft Runway displaced threshold 0 ft Runway heading 102
Runway 29 Runway length 10827 ft Runway width 197 ft
Runway elevation 66 ft Runway displaced threshold 0 ft Runway heading 282
Runway 17 Runway length 10187 ft Runway width 148 ft
Runway elevation 62 ft Runway displaced threshold 0 ft Runway heading 164
Runway 35 Runway length 10187 ft Runway width 148 ft
Runway elevation 67 ft Runway displaced threshold 984 ft Runway heading 344

 AIRPORT FREQUENCIES
Type A/D Name BAIRES CON Frequency 124.9 MHZ
Type APP Name EZEIZA APP Frequency 119.9 MHZ
Type ATIS Name ATIS Frequency 127.8 MHZ
Type GCCD Name GND/CLNC D Frequency 121.75 MHZ
Type TWR Name EZEIZA TWR Frequency 118.6 MHZ

 AIRPORT NEAR NAVIGATION AIDS
Type VOR-DME Name Ezeiza Frequency 116500 KHZ



Powered by Virtual Airlines Manager [v2.6.2]